sensor_id;sensor_type;location;lat;lon;timestamp;pressure;altitude;pressure_sealevel;temperature;humidity
45941;BME280;31858;46.008;8.978;2024-03-07T00:00:11;94490.63;;;5.76;100.00
45941;BME280;31858;46.008;8.978;2024-03-07T00:10:19;94493.63;;;5.75;100.00
45941;BME280;31858;46.008;8.978;2024-03-07T00:20:21;94491.47;;;5.65;100.00
45941;BME280;31858;46.008;8.978;2024-03-07T00:30:24;94485.00;;;5.62;100.00
45941;BME280;31858;46.008;8.978;2024-03-07T00:40:29;94491.03;;;5.47;100.00
45941;BME280;31858;46.008;8.978;2024-03-07T00:50:32;94491.22;;;5.54;100.00
45941;BME280;31858;46.008;8.978;2024-03-07T01:00:34;94482.94;;;5.40;100.00
45941;BME280;31858;46.008;8.978;2024-03-07T01:10:36;94475.09;;;5.43;100.00
45941;BME280;31858;46.008;8.978;2024-03-07T01:20:38;94473.72;;;5.18;100.00
45941;BME280;31858;46.008;8.978;2024-03-07T01:30:41;94472.22;;;5.05;100.00
45941;BME280;31858;46.008;8.978;2024-03-07T01:40:43;94457.69;;;5.11;100.00
45941;BME280;31858;46.008;8.978;2024-03-07T01:50:47;94455.84;;;4.99;100.00
45941;BME280;31858;46.008;8.978;2024-03-07T02:00:48;94466.09;;;5.01;100.00
45941;BME280;31858;46.008;8.978;2024-03-07T02:10:51;94455.00;;;4.95;100.00
45941;BME280;31858;46.008;8.978;2024-03-07T02:20:54;94454.13;;;4.91;100.00
45941;BME280;31858;46.008;8.978;2024-03-07T02:30:56;94451.41;;;4.87;100.00
45941;BME280;31858;46.008;8.978;2024-03-07T02:40:59;94444.81;;;4.81;100.00
45941;BME280;31858;46.008;8.978;2024-03-07T02:51:00;94449.47;;;4.72;100.00
45941;BME280;31858;46.008;8.978;2024-03-07T03:01:03;94444.22;;;4.60;100.00
45941;BME280;31858;46.008;8.978;2024-03-07T03:11:05;94442.59;;;4.55;100.00
45941;BME280;31858;46.008;8.978;2024-03-07T03:21:10;94439.97;;;4.55;100.00
45941;BME280;31858;46.008;8.978;2024-03-07T03:31:12;94439.75;;;4.48;100.00
45941;BME280;31858;46.008;8.978;2024-03-07T03:41:16;94431.94;;;4.52;100.00
45941;BME280;31858;46.008;8.978;2024-03-07T03:51:18;94441.91;;;4.31;100.00
45941;BME280;31858;46.008;8.978;2024-03-07T04:01:23;94438.91;;;4.32;100.00
45941;BME280;31858;46.008;8.978;2024-03-07T04:11:25;94433.41;;;4.37;100.00
45941;BME280;31858;46.008;8.978;2024-03-07T04:21:28;94434.88;;;4.22;100.00
45941;BME280;31858;46.008;8.978;2024-03-07T04:31:30;94427.81;;;4.39;100.00
45941;BME280;31858;46.008;8.978;2024-03-07T04:41:32;94426.38;;;4.41;100.00
45941;BME280;31858;46.008;8.978;2024-03-07T04:51:35;94431.97;;;4.40;100.00
45941;BME280;31858;46.008;8.978;2024-03-07T05:01:40;94428.47;;;4.36;100.00
45941;BME280;31858;46.008;8.978;2024-03-07T05:11:41;94430.16;;;4.16;100.00
45941;BME280;31858;46.008;8.978;2024-03-07T05:21:44;94423.56;;;4.22;100.00
45941;BME280;31858;46.008;8.978;2024-03-07T05:31:46;94427.28;;;4.21;100.00
45941;BME280;31858;46.008;8.978;2024-03-07T05:41:49;94430.38;;;4.23;100.00
45941;BME280;31858;46.008;8.978;2024-03-07T05:51:51;94426.53;;;4.20;100.00
45941;BME280;31858;46.008;8.978;2024-03-07T06:01:54;94433.44;;;4.25;100.00
45941;BME280;31858;46.008;8.978;2024-03-07T06:11:56;94434.31;;;4.29;100.00
45941;BME280;31858;46.008;8.978;2024-03-07T06:21:58;94440.25;;;4.26;100.00
45941;BME280;31858;46.008;8.978;2024-03-07T06:32:00;94445.97;;;4.28;100.00
45941;BME280;31858;46.008;8.978;2024-03-07T06:42:04;94442.44;;;4.36;100.00
45941;BME280;31858;46.008;8.978;2024-03-07T06:52:06;94454.19;;;4.39;100.00
45941;BME280;31858;46.008;8.978;2024-03-07T07:02:09;94452.38;;;4.55;100.00
45941;BME280;31858;46.008;8.978;2024-03-07T07:12:11;94454.47;;;4.62;100.00
45941;BME280;31858;46.008;8.978;2024-03-07T07:22:16;94458.63;;;4.63;100.00
45941;BME280;31858;46.008;8.978;2024-03-07T07:32:18;94446.16;;;4.75;100.00
45941;BME280;31858;46.008;8.978;2024-03-07T07:42:21;94447.94;;;4.71;100.00
45941;BME280;31858;46.008;8.978;2024-03-07T07:52:23;94440.31;;;4.82;100.00
45941;BME280;31858;46.008;8.978;2024-03-07T08:02:25;94444.06;;;4.81;100.00
45941;BME280;31858;46.008;8.978;2024-03-07T08:12:28;94440.31;;;4.82;100.00
45941;BME280;31858;46.008;8.978;2024-03-07T08:22:32;94446.78;;;5.12;100.00
45941;BME280;31858;46.008;8.978;2024-03-07T08:32:34;94442.84;;;5.06;100.00
45941;BME280;31858;46.008;8.978;2024-03-07T08:42:39;94445.09;;;4.92;100.00
45941;BME280;31858;46.008;8.978;2024-03-07T08:52:42;94433.41;;;5.37;100.00
45941;BME280;31858;46.008;8.978;2024-03-07T09:02:46;94437.50;;;5.50;100.00
45941;BME280;31858;46.008;8.978;2024-03-07T09:12:50;94441.44;;;5.56;100.00
45941;BME280;31858;46.008;8.978;2024-03-07T09:22:53;94439.03;;;5.67;100.00
45941;BME280;31858;46.008;8.978;2024-03-07T09:32:55;94443.31;;;5.71;100.00
45941;BME280;31858;46.008;8.978;2024-03-07T09:42:59;94445.69;;;5.76;100.00
45941;BME280;31858;46.008;8.978;2024-03-07T09:53:03;94449.81;;;5.89;100.00
45941;BME280;31858;46.008;8.978;2024-03-07T10:03:08;94454.16;;;5.98;100.00
45941;BME280;31858;46.008;8.978;2024-03-07T10:13:11;94453.63;;;6.08;100.00
45941;BME280;31858;46.008;8.978;2024-03-07T10:23:19;94455.66;;;6.14;100.00
45941;BME280;31858;46.008;8.978;2024-03-07T10:33:21;94445.69;;;6.43;100.00
45941;BME280;31858;46.008;8.978;2024-03-07T10:43:29;94444.63;;;6.67;100.00
45941;BME280;31858;46.008;8.978;2024-03-07T10:53:32;94451.06;;;7.04;100.00
45941;BME280;31858;46.008;8.978;2024-03-07T11:03:39;94453.22;;;7.41;100.00
45941;BME280;31858;46.008;8.978;2024-03-07T11:13:43;94441.69;;;8.02;100.00
45941;BME280;31858;46.008;8.978;2024-03-07T11:23:48;94438.09;;;8.40;100.00
45941;BME280;31858;46.008;8.978;2024-03-07T11:34:13;94428.91;;;8.64;100.00
45941;BME280;31858;46.008;8.978;2024-03-07T11:44:17;94418.19;;;8.87;100.00
45941;BME280;31858;46.008;8.978;2024-03-07T11:54:18;94408.72;;;9.26;100.00
45941;BME280;31858;46.008;8.978;2024-03-07T12:04:26;94398.97;;;9.85;100.00
45941;BME280;31858;46.008;8.978;2024-03-07T12:14:27;94375.84;;;9.96;100.00
45941;BME280;31858;46.008;8.978;2024-03-07T12:24:30;94361.81;;;10.03;100.00
45941;BME280;31858;46.008;8.978;2024-03-07T12:34:32;94358.59;;;10.34;100.00
45941;BME280;31858;46.008;8.978;2024-03-07T12:44:41;94356.84;;;10.77;100.00
45941;BME280;31858;46.008;8.978;2024-03-07T12:54:46;94337.44;;;10.84;100.00
45941;BME280;31858;46.008;8.978;2024-03-07T13:04:49;94332.56;;;11.07;100.00
45941;BME280;31858;46.008;8.978;2024-03-07T13:14:51;94312.75;;;11.05;100.00
45941;BME280;31858;46.008;8.978;2024-03-07T13:24:54;94310.47;;;11.39;100.00
45941;BME280;31858;46.008;8.978;2024-03-07T13:34:55;94297.53;;;11.55;100.00
45941;BME280;31858;46.008;8.978;2024-03-07T13:45:01;94296.72;;;11.76;90.95
45941;BME280;31858;46.008;8.978;2024-03-07T13:55:06;94299.00;;;11.92;100.00
45941;BME280;31858;46.008;8.978;2024-03-07T14:05:31;94290.63;;;11.79;100.00
45941;BME280;31858;46.008;8.978;2024-03-07T14:26:45;94278.34;;;12.10;96.29
45941;BME280;31858;46.008;8.978;2024-03-07T14:36:56;94280.28;;;12.02;90.44
45941;BME280;31858;46.008;8.978;2024-03-07T14:47:03;94269.97;;;12.08;88.02
45941;BME280;31858;46.008;8.978;2024-03-07T14:57:07;94270.41;;;11.74;77.33
45941;BME280;31858;46.008;8.978;2024-03-07T15:07:12;94264.00;;;11.04;100.00
45941;BME280;31858;46.008;8.978;2024-03-07T15:17:14;94268.47;;;10.58;100.00
45941;BME280;31858;46.008;8.978;2024-03-07T15:27:17;94248.66;;;10.44;100.00
45941;BME280;31858;46.008;8.978;2024-03-07T15:37:18;94247.50;;;10.31;100.00
45941;BME280;31858;46.008;8.978;2024-03-07T15:47:24;94237.16;;;10.19;100.00
45941;BME280;31858;46.008;8.978;2024-03-07T15:57:26;94229.50;;;10.07;100.00
45941;BME280;31858;46.008;8.978;2024-03-07T16:07:29;94232.66;;;10.44;100.00
45941;BME280;31858;46.008;8.978;2024-03-07T16:17:32;94219.75;;;10.57;100.00
45941;BME280;31858;46.008;8.978;2024-03-07T16:27:35;94225.81;;;10.33;100.00
45941;BME280;31858;46.008;8.978;2024-03-07T16:37:37;94233.28;;;10.02;100.00
45941;BME280;31858;46.008;8.978;2024-03-07T16:47:44;94240.16;;;10.07;100.00
45941;BME280;31858;46.008;8.978;2024-03-07T16:57:48;94239.78;;;10.08;100.00
45941;BME280;31858;46.008;8.978;2024-03-07T17:07:52;94242.69;;;9.78;100.00
45941;BME280;31858;46.008;8.978;2024-03-07T17:17:54;94238.41;;;9.60;100.00
45941;BME280;31858;46.008;8.978;2024-03-07T17:27:57;94244.59;;;9.20;100.00
45941;BME280;31858;46.008;8.978;2024-03-07T17:38:00;94263.06;;;8.98;100.00
45941;BME280;31858;46.008;8.978;2024-03-07T17:48:04;94265.97;;;8.86;100.00
45941;BME280;31858;46.008;8.978;2024-03-07T17:58:06;94276.50;;;8.75;100.00
45941;BME280;31858;46.008;8.978;2024-03-07T18:08:10;94283.09;;;8.52;100.00
45941;BME280;31858;46.008;8.978;2024-03-07T18:18:17;94286.25;;;8.31;100.00
45941;BME280;31858;46.008;8.978;2024-03-07T18:28:20;94285.72;;;8.18;100.00
45941;BME280;31858;46.008;8.978;2024-03-07T18:38:21;94284.03;;;8.03;100.00
45941;BME280;31858;46.008;8.978;2024-03-07T18:48:24;94281.63;;;7.94;100.00
45941;BME280;31858;46.008;8.978;2024-03-07T18:58:26;94298.22;;;7.88;100.00
45941;BME280;31858;46.008;8.978;2024-03-07T19:08:29;94302.75;;;7.87;100.00
45941;BME280;31858;46.008;8.978;2024-03-07T19:18:30;94309.66;;;7.92;100.00
45941;BME280;31858;46.008;8.978;2024-03-07T19:28:35;94316.69;;;7.80;100.00
45941;BME280;31858;46.008;8.978;2024-03-07T19:38:38;94320.84;;;7.78;100.00
45941;BME280;31858;46.008;8.978;2024-03-07T19:48:41;94313.41;;;7.61;100.00
45941;BME280;31858;46.008;8.978;2024-03-07T19:58:43;94319.13;;;7.63;100.00
45941;BME280;31858;46.008;8.978;2024-03-07T20:08:46;94323.16;;;7.53;100.00
45941;BME280;31858;46.008;8.978;2024-03-07T20:18:48;94316.78;;;7.58;100.00
45941;BME280;31858;46.008;8.978;2024-03-07T20:28:52;94331.50;;;7.55;100.00
45941;BME280;31858;46.008;8.978;2024-03-07T20:38:54;94342.06;;;7.51;100.00
45941;BME280;31858;46.008;8.978;2024-03-07T20:48:57;94333.59;;;7.42;100.00
45941;BME280;31858;46.008;8.978;2024-03-07T20:58:59;94336.28;;;7.46;100.00
45941;BME280;31858;46.008;8.978;2024-03-07T21:09:03;94333.19;;;7.40;100.00
45941;BME280;31858;46.008;8.978;2024-03-07T21:19:09;94333.75;;;7.53;100.00
45941;BME280;31858;46.008;8.978;2024-03-07T21:29:12;94330.19;;;7.42;100.00
45941;BME280;31858;46.008;8.978;2024-03-07T21:39:14;94334.94;;;7.33;100.00
45941;BME280;31858;46.008;8.978;2024-03-07T21:49:17;94338.91;;;7.19;100.00
45941;BME280;31858;46.008;8.978;2024-03-07T21:59:19;94345.19;;;7.11;100.00
45941;BME280;31858;46.008;8.978;2024-03-07T22:09:22;94341.91;;;6.95;100.00
45941;BME280;31858;46.008;8.978;2024-03-07T22:19:23;94357.84;;;6.99;100.00
45941;BME280;31858;46.008;8.978;2024-03-07T22:29:26;94345.50;;;7.06;100.00
45941;BME280;31858;46.008;8.978;2024-03-07T22:39:28;94340.00;;;6.96;100.00
45941;BME280;31858;46.008;8.978;2024-03-07T22:49:33;94343.59;;;6.84;100.00
45941;BME280;31858;46.008;8.978;2024-03-07T22:59:36;94345.88;;;6.85;100.00
45941;BME280;31858;46.008;8.978;2024-03-07T23:09:39;94336.19;;;6.93;100.00
45941;BME280;31858;46.008;8.978;2024-03-07T23:19:41;94325.00;;;7.03;100.00
45941;BME280;31858;46.008;8.978;2024-03-07T23:29:44;94320.59;;;7.11;100.00
45941;BME280;31858;46.008;8.978;2024-03-07T23:39:46;94322.94;;;6.93;100.00
45941;BME280;31858;46.008;8.978;2024-03-07T23:49:48;94332.72;;;6.89;100.00
45941;BME280;31858;46.008;8.978;2024-03-07T23:59:50;94329.31;;;7.11;100.00
